Marin Sunshine — WDE5919 — position and weather

sailwx.info

Track history (hours):
 
Tides and Currents Weather Stations Pressure Air Temp Water Temp Dewpoint Dewpoint Depression Visibility Wind Speed Wind Dir Waves Ship Positions

Marin Sunshine

Owner: Marine Express, alameda, CA. More information available from US FCC via Universal Licensing System and Coast Guard Vessel Documentation Center.

Last reported at 2015-Aug-26 20:24 UTC. Time now 2015-Aug-27 20:44 UTC.
Position N 37°57' W 121°21'.

MMSI: 367373280.

Date/timePositionNaut miles runAvg speedWind from/ knotsBaromVisibWave heightAir tempDewpointWater temp
2015-Aug-26 20:24N 37°57' W 121°21'0 0.0
2015-Aug-26 19:33N 37°57' W 121°21'1 0.6
2015-Aug-26 18:33N 37°58' W 121°22'1 0.6
2015-Aug-26 17:33N 37°57' W 121°21'  
2015-Aug-21 22:33N 37°57' W 121°21'1 0.7
2015-Aug-21 21:33N 37°57' W 121°21'1 0.6
2015-Aug-21 20:33N 37°57' W 121°20'1 0.0
2015-Aug-20 00:33N 37°57' W 121°21'2 1.8
2015-Aug-19 23:33N 37°57' W 121°19'2 1.6
2015-Aug-19 22:33N 37°57' W 121°21'0 0.2
2015-Aug-19 21:33N 37°57' W 121°21'1 0.0
2015-Aug-17 23:33N 37°58' W 121°22'2 2.5
2015-Aug-17 22:33N 37°57' W 121°19'0 0.4
2015-Aug-17 21:33N 37°57' W 121°20'1 0.2
2015-Aug-17 13:34N 37°57' W 121°21'2 1.8
2015-Aug-17 12:34N 37°57' W 121°19'2 2.4
2015-Aug-17 11:33N 37°58' W 121°22'1 0.6
2015-Aug-17 10:34N 37°57' W 121°21'0 0.0
2015-Aug-17 09:33N 37°57' W 121°21'1 0.8
2015-Aug-17 08:33N 37°57' W 121°20'0 0.3
2015-Aug-17 07:34N 37°57' W 121°21'0 0.5
2015-Aug-17 06:33N 37°57' W 121°21'0 0.0
2015-Aug-17 05:34N 37°57' W 121°21'  
Track history (hours):
 
Tides and Currents Weather Stations Pressure Air Temp Water Temp Dewpoint Dewpoint Depression Visibility Wind Speed Wind Dir Waves Ship Positions

Marin Sunshine

Owner: Marine Express, alameda, CA. More information available from US FCC via Universal Licensing System and Coast Guard Vessel Documentation Center.

Last reported at 2015-Aug-26 20:24 UTC. Time now 2015-Aug-27 20:44 UTC.
Position N 37°57' W 121°21'.

MMSI: 367373280.

Date/timePositionNaut miles runAvg speedWind from/ knotsBaromVisibWave heightAir tempDewpointWater temp
2015-Aug-26 20:24N 37°57' W 121°21'0 0.0
2015-Aug-26 19:33N 37°57' W 121°21'1 0.6
2015-Aug-26 18:33N 37°58' W 121°22'1 0.6
2015-Aug-26 17:33N 37°57' W 121°21'  
2015-Aug-21 22:33N 37°57' W 121°21'1 0.7
2015-Aug-21 21:33N 37°57' W 121°21'1 0.6
2015-Aug-21 20:33N 37°57' W 121°20'1 0.0
2015-Aug-20 00:33N 37°57' W 121°21'2 1.8
2015-Aug-19 23:33N 37°57' W 121°19'2 1.6
2015-Aug-19 22:33N 37°57' W 121°21'0 0.2
2015-Aug-19 21:33N 37°57' W 121°21'1 0.0
2015-Aug-17 23:33N 37°58' W 121°22'2 2.5
2015-Aug-17 22:33N 37°57' W 121°19'0 0.4
2015-Aug-17 21:33N 37°57' W 121°20'1 0.2
2015-Aug-17 13:34N 37°57' W 121°21'2 1.8
2015-Aug-17 12:34N 37°57' W 121°19'2 2.4
2015-Aug-17 11:33N 37°58' W 121°22'1 0.6
2015-Aug-17 10:34N 37°57' W 121°21'0 0.0
2015-Aug-17 09:33N 37°57' W 121°21'1 0.8
2015-Aug-17 08:33N 37°57' W 121°20'0 0.3
2015-Aug-17 07:34N 37°57' W 121°21'0 0.5
2015-Aug-17 06:33N 37°57' W 121°21'0 0.0
2015-Aug-17 05:34N 37°57' W 121°21'  

Dump ship's entire track history